Date,TemperatureHighF,TemperatureAvgF,TemperatureLowF,DewpointHighF,DewpointAvgF,DewpointLowF,HumidityHigh,HumidityAvg,HumidityLow,PressureMaxIn,PressureMinIn,WindSpeedMaxMPH,WindSpeedAvgMPH,GustSpeedMaxMPH,PrecipitationSumIn
2013-6-1,74.3,64.6,56.9,66.1,61.5,54.6,96,90,74,29.72,29.59,19,2,19,0.25
2013-6-2,59.5,47.6,41.8,57.4,43.7,35.5,96,87,71,30.00,29.56,22,7,22,0.13
2013-6-3,56.9,46.9,31.9,44.7,38.2,30.6,96,73,49,30.12,29.99,24,4,24,0.00
2013-6-4,62.1,48.9,31.4,43.9,35.9,29.9,96,65,34,30.23,30.12,11,2,11,0.00
2013-6-5,58.4,51.8,45.8,48.5,44.3,41.6,90,76,60,30.20,30.10,16,4,16,0.00
2013-6-6,67.0,57.0,49.7,45.8,41.2,35.3,76,57,34,30.10,29.95,22,7,22,0.00
2013-6-7,72.8,57.0,37.2,46.3,40.6,34.3,91,59,27,29.98,29.88,16,3,17,0.00
2013-6-8,66.3,55.1,40.3,52.5,45.3,38.7,95,72,42,30.05,29.90,9,2,10,0.00
2013-6-9,75.5,60.3,39.3,56.8,48.8,37.2,95,69,42,30.12,29.98,17,4,17,0.00
2013-6-10,71.3,62.5,58.5,61.0,55.0,49.5,95,77,65,29.99,29.79,20,7,23,0.00
2013-6-11,75.0,62.3,54.6,63.6,58.8,53.1,98,89,65,29.85,29.78,15,2,15,0.00
2013-6-12,77.3,63.4,49.8,61.5,54.5,49.1,99,76,41,29.90,29.73,12,2,12,0.01
2013-6-13,71.8,59.6,47.4,58.7,52.6,45.7,96,79,60,30.01,29.71,21,5,21,0.00
2013-6-14,72.8,56.6,39.2,47.7,41.0,30.9,96,62,23,30.12,30.00,11,2,12,0.00
2013-6-15,74.5,58.7,41.0,59.5,47.9,38.6,95,70,36,30.02,29.81,12,2,12,0.02
2013-6-16,72.9,62.7,54.2,63.8,58.7,52.3,98,88,65,29.83,29.72,18,3,18,0.28
2013-6-17,63.6,56.5,49.8,55.6,52.7,48.4,98,88,73,30.01,29.79,14,3,14,0.01
2013-6-18,69.3,55.3,38.2,50.2,43.1,37.2,97,69,33,30.12,30.01,20,3,20,0.00
2013-6-19,67.8,56.4,37.5,50.1,44.8,36.1,96,69,41,30.17,30.08,17,3,17,0.00
2013-6-20,78.2,63.8,45.9,58.5,49.8,43.0,91,64,35,30.14,30.08,18,3,20,0.00
2013-6-21,78.2,65.5,55.5,67.5,59.3,50.7,89,81,65,30.13,29.87,20,4,26,0.05
2013-6-22,70.8,62.5,58.6,64.9,60.1,56.8,98,92,79,30.06,29.91,14,3,15,0.02
2013-6-23,84.7,71.4,62.1,71.2,65.1,60.7,95,82,54,30.00,29.81,22,4,22,0.00
2013-6-24,80.3,74.4,65.2,69.9,67.3,62.8,92,79,67,29.93,29.80,18,5,19,0.00
2013-6-25,75.5,68.9,61.6,68.6,65.1,60.5,96,88,76,29.82,29.76,18,3,18,0.33
2013-6-26,86.3,70.1,56.0,69.4,63.3,55.1,98,81,54,29.80,29.69,11,2,11,0.00
2013-6-27,80.0,68.1,61.3,70.7,64.3,60.0,97,88,62,29.75,29.63,13,2,13,0.26
2013-6-28,75.3,66.5,59.9,65.3,62.2,58.5,98,87,68,29.63,29.55,15,3,15,0.00
2013-6-29,75.0,66.2,58.4,63.1,59.3,55.4,94,79,62,29.78,29.60,17,4,17,0.01
2013-6-30,77.3,66.7,51.7,57.7,50.0,39.9,93,59,30,30.02,29.78,12,3,12,0.00